Time;durP1;ratioP1;P1;durP2;ratioP2;P2;SDS_P1;SDS_P2;PMS_P1;PMS_P2;Temp;Humidity;BMP_temperature;BMP_pressure;BME280_temperature;BME280_humidity;BME280_pressure;Samples;Min_cycle;Max_cycle;Signal;HPM_P1;HPM_P2
2023/07/17 00:01:47;;;;;;;9.03;4.73;;;;;;;;;;5082866;28;20605;-63
2023/07/17 00:04:15;;;;;;;4.93;3.60;;;;;;;;;;5083267;28;20487;-63
2023/07/17 00:06:41;;;;;;;5.30;4.23;;;;;;;;;;5081981;28;20492;-63
2023/07/17 00:09:08;;;;;;;5.60;4.20;;;;;;;;;;5082610;28;20856;-63
2023/07/17 00:11:34;;;;;;;6.13;4.03;;;;;;;;;;5083608;28;20444;-63
2023/07/17 00:14:01;;;;;;;6.93;4.47;;;;;;;;;;5083242;28;20486;-63
2023/07/17 00:16:27;;;;;;;7.17;4.77;;;;;;;;;;5083386;28;20511;-63
2023/07/17 00:18:54;;;;;;;4.97;4.03;;;;;;;;;;5082765;28;20480;-63
2023/07/17 00:21:21;;;;;;;7.63;4.00;;;;;;;;;;5082646;28;20543;-63
2023/07/17 00:23:48;;;;;;;5.80;4.00;;;;;;;;;;5081860;28;20480;-63
2023/07/17 00:26:14;;;;;;;6.90;4.53;;;;;;;;;;5082938;28;20448;-64
2023/07/17 00:28:41;;;;;;;10.17;4.80;;;;;;;;;;5082585;28;20595;-63
2023/07/17 00:31:07;;;;;;;7.80;4.40;;;;;;;;;;5082584;28;20524;-63
2023/07/17 00:33:33;;;;;;;6.13;4.20;;;;;;;;;;5082481;28;20468;-63
2023/07/17 00:36:00;;;;;;;6.90;4.37;;;;;;;;;;5081413;28;21132;-63
2023/07/17 00:38:28;;;;;;;7.33;4.63;;;;;;;;;;5081896;28;20484;-63
2023/07/17 00:40:54;;;;;;;5.80;4.13;;;;;;;;;;5082926;28;20490;-63
2023/07/17 00:43:20;;;;;;;7.67;4.30;;;;;;;;;;5081686;28;20915;-63
2023/07/17 00:45:47;;;;;;;7.23;4.10;;;;;;;;;;5082728;28;20454;-63
2023/07/17 00:48:14;;;;;;;7.20;4.13;;;;;;;;;;5082290;28;20530;-63
2023/07/17 00:50:40;;;;;;;8.47;4.30;;;;;;;;;;5082157;28;20436;-63
2023/07/17 00:53:07;;;;;;;5.40;3.90;;;;;;;;;;5081519;28;20467;-63
2023/07/17 00:55:36;;;;;;;8.10;4.67;;;;;;;;;;5082488;28;20527;-63
2023/07/17 00:58:02;;;;;;;8.43;4.37;;;;;;;;;;5081994;28;20448;-63
2023/07/17 01:00:29;;;;;;;6.97;4.47;;;;;;;;;;5081669;28;20444;-63
2023/07/17 01:02:56;;;;;;;6.40;4.67;;;;;;;;;;5081721;28;20531;-63
2023/07/17 01:05:23;;;;;;;7.57;4.50;;;;;;;;;;5081055;28;20864;-63
2023/07/17 01:07:49;;;;;;;8.03;3.87;;;;;;;;;;5080898;28;20507;-63
2023/07/17 01:10:15;;;;;;;5.80;4.40;;;;;;;;;;5082148;28;20530;-63
2023/07/17 01:12:43;;;;;;;9.80;4.80;;;;;;;;;;5081207;28;20991;-63
2023/07/17 01:15:10;;;;;;;7.97;4.50;;;;;;;;;;5080926;28;20487;-63
2023/07/17 01:17:36;;;;;;;7.17;4.40;;;;;;;;;;5082150;28;20455;-63
2023/07/17 01:20:05;;;;;;;6.00;3.90;;;;;;;;;;5081771;28;20470;-63
2023/07/17 01:22:32;;;;;;;6.47;4.40;;;;;;;;;;5080810;28;20451;-63
2023/07/17 01:25:00;;;;;;;5.93;4.50;;;;;;;;;;5081243;28;20472;-63
2023/07/17 01:27:27;;;;;;;5.13;4.10;;;;;;;;;;5081281;28;20711;-63
2023/07/17 01:29:53;;;;;;;7.33;4.47;;;;;;;;;;5081299;28;20499;-63
2023/07/17 01:32:20;;;;;;;7.57;4.50;;;;;;;;;;5081077;28;20466;-63
2023/07/17 01:34:47;;;;;;;7.83;5.20;;;;;;;;;;5080853;28;20862;-63
2023/07/17 01:37:13;;;;;;;6.67;4.80;;;;;;;;;;5080360;28;20470;-63
2023/07/17 01:39:41;;;;;;;7.63;5.20;;;;;;;;;;5081460;28;20535;-63
2023/07/17 01:42:08;;;;;;;5.70;4.50;;;;;;;;;;5081221;28;20464;-63
2023/07/17 01:44:35;;;;;;;7.83;4.37;;;;;;;;;;5064076;28;20460;-63
2023/07/17 01:47:01;;;;;;;5.80;4.30;;;;;;;;;;5081262;28;20455;-63
2023/07/17 01:49:27;;;;;;;9.20;4.67;;;;;;;;;;5081046;28;20510;-63
2023/07/17 01:51:54;;;;;;;7.40;4.40;;;;;;;;;;5080434;28;20487;-63
2023/07/17 01:54:20;;;;;;;8.70;4.60;;;;;;;;;;5080805;28;20451;-63
2023/07/17 01:56:47;;;;;;;7.67;4.67;;;;;;;;;;5081128;28;20459;-63
2023/07/17 01:59:14;;;;;;;6.87;4.40;;;;;;;;;;5081074;28;20460;-63
2023/07/17 02:01:41;;;;;;;9.23;4.50;;;;;;;;;;5080928;28;20459;-63
2023/07/17 02:04:07;;;;;;;5.03;3.97;;;;;;;;;;5080333;28;20543;-63
2023/07/17 02:06:33;;;;;;;5.03;4.37;;;;;;;;;;5080010;28;20891;-63
2023/07/17 02:09:00;;;;;;;8.67;4.97;;;;;;;;;;5080325;28;20507;-62
2023/07/17 02:11:29;;;;;;;6.30;4.60;;;;;;;;;;5079879;28;20488;-63
2023/07/17 02:13:55;;;;;;;6.90;4.90;;;;;;;;;;5080515;28;20460;-63
2023/07/17 02:16:23;;;;;;;7.60;4.97;;;;;;;;;;5080885;28;20757;-62
2023/07/17 02:18:49;;;;;;;8.73;4.47;;;;;;;;;;5077270;28;20464;-63
2023/07/17 02:21:16;;;;;;;11.00;5.43;;;;;;;;;;5080430;28;20506;-62
2023/07/17 02:23:42;;;;;;;8.30;5.10;;;;;;;;;;5079985;28;20463;-62
2023/07/17 02:26:09;;;;;;;7.20;4.73;;;;;;;;;;5080475;28;20916;-62
2023/07/17 02:28:35;;;;;;;6.63;4.53;;;;;;;;;;5080331;28;20495;-63
2023/07/17 02:31:02;;;;;;;7.47;4.80;;;;;;;;;;5080417;28;20512;-62
2023/07/17 02:33:30;;;;;;;8.47;4.93;;;;;;;;;;5080454;28;20452;-62
2023/07/17 02:35:56;;;;;;;9.27;5.13;;;;;;;;;;5080050;28;20507;-62
2023/07/17 02:38:23;;;;;;;14.10;5.20;;;;;;;;;;5079784;28;20922;-63
2023/07/17 02:40:50;;;;;;;10.93;6.20;;;;;;;;;;5080697;28;20512;-62
2023/07/17 02:43:16;;;;;;;8.97;5.47;;;;;;;;;;5079526;28;20547;-62
2023/07/17 02:45:43;;;;;;;10.83;6.03;;;;;;;;;;5080419;28;20508;-63
2023/07/17 02:48:09;;;;;;;9.00;5.87;;;;;;;;;;5080722;28;20484;-63
2023/07/17 02:50:37;;;;;;;6.53;5.10;;;;;;;;;;5080204;28;20509;-63
2023/07/17 02:53:03;;;;;;;9.33;5.77;;;;;;;;;;5079810;28;20583;-62
2023/07/17 02:55:30;;;;;;;11.03;5.40;;;;;;;;;;5080489;28;20525;-63
2023/07/17 02:57:56;;;;;;;8.07;5.17;;;;;;;;;;5080333;28;20475;-63
2023/07/17 03:00:23;;;;;;;9.90;5.60;;;;;;;;;;5080259;28;20515;-63
2023/07/17 03:02:49;;;;;;;9.47;5.40;;;;;;;;;;5079993;28;20491;-63
2023/07/17 03:05:16;;;;;;;10.80;4.90;;;;;;;;;;5079431;28;20442;-63
2023/07/17 03:07:45;;;;;;;7.93;5.20;;;;;;;;;;5079249;28;20480;-63
2023/07/17 03:10:12;;;;;;;9.00;5.40;;;;;;;;;;5080172;28;20514;-63
2023/07/17 03:12:38;;;;;;;7.27;4.60;;;;;;;;;;5080192;28;20455;-62
2023/07/17 03:15:05;;;;;;;7.23;5.27;;;;;;;;;;5080035;28;20495;-62
2023/07/17 03:17:32;;;;;;;6.30;4.57;;;;;;;;;;5080122;28;20810;-62
2023/07/17 03:19:58;;;;;;;5.50;4.17;;;;;;;;;;5080187;28;20486;-63
2023/07/17 03:22:26;;;;;;;6.63;4.30;;;;;;;;;;5079132;28;20538;-63
2023/07/17 03:24:54;;;;;;;7.30;4.20;;;;;;;;;;5070666;28;20459;-60
2023/07/17 03:27:21;;;;;;;8.30;4.47;;;;;;;;;;5079995;28;20484;-60
2023/07/17 03:29:47;;;;;;;8.10;4.07;;;;;;;;;;5081785;28;20521;-63
2023/07/17 03:32:14;;;;;;;7.90;4.50;;;;;;;;;;5083731;28;20478;-63
2023/07/17 03:34:41;;;;;;;7.20;4.90;;;;;;;;;;5083797;28;20575;-63
2023/07/17 03:37:07;;;;;;;6.50;4.33;;;;;;;;;;5083353;28;20823;-63
2023/07/17 03:39:34;;;;;;;5.60;4.30;;;;;;;;;;5083585;28;20452;-63
2023/07/17 03:42:01;;;;;;;5.00;3.63;;;;;;;;;;5083414;28;20825;-62
2023/07/17 03:44:28;;;;;;;7.57;4.13;;;;;;;;;;5083039;28;20479;-63
2023/07/17 03:46:54;;;;;;;5.80;3.60;;;;;;;;;;5083663;28;20463;-63
2023/07/17 03:49:20;;;;;;;6.70;4.23;;;;;;;;;;5083379;28;20570;-63
2023/07/17 03:51:47;;;;;;;6.23;3.20;;;;;;;;;;5082982;28;20479;-63
2023/07/17 03:54:13;;;;;;;5.00;3.77;;;;;;;;;;5082536;28;20456;-63
2023/07/17 03:56:40;;;;;;;7.43;3.90;;;;;;;;;;5083896;28;20444;-62
2023/07/17 03:59:08;;;;;;;7.27;3.60;;;;;;;;;;5083116;28;20889;-62
2023/07/17 04:01:35;;;;;;;6.20;4.23;;;;;;;;;;5083026;28;20550;-63
2023/07/17 04:04:01;;;;;;;5.10;3.97;;;;;;;;;;5075224;28;20630;-63
2023/07/17 04:06:27;;;;;;;4.07;3.57;;;;;;;;;;5080193;28;20478;-63
2023/07/17 04:08:54;;;;;;;7.00;4.00;;;;;;;;;;5081669;28;20494;-63
2023/07/17 04:11:20;;;;;;;6.70;4.57;;;;;;;;;;5082278;28;20523;-63
2023/07/17 04:13:46;;;;;;;7.37;4.23;;;;;;;;;;5081615;28;20494;-63
2023/07/17 04:16:15;;;;;;;8.30;5.07;;;;;;;;;;5082326;28;20497;-62
2023/07/17 04:18:41;;;;;;;11.47;4.40;;;;;;;;;;5082074;28;20518;-62
2023/07/17 04:21:07;;;;;;;9.00;4.07;;;;;;;;;;5081385;28;20486;-63
2023/07/17 04:23:34;;;;;;;7.93;4.13;;;;;;;;;;5081656;28;20448;-63
2023/07/17 04:26:00;;;;;;;8.27;4.23;;;;;;;;;;5082148;28;20555;-63
2023/07/17 04:28:26;;;;;;;6.03;3.83;;;;;;;;;;5080979;28;20528;-63
2023/07/17 04:30:53;;;;;;;8.97;4.10;;;;;;;;;;5082176;28;20492;-63
2023/07/17 04:33:21;;;;;;;4.33;3.73;;;;;;;;;;5081703;28;20480;-63
2023/07/17 04:35:47;;;;;;;8.87;4.53;;;;;;;;;;5080876;28;20511;-64
2023/07/17 04:38:13;;;;;;;5.03;4.30;;;;;;;;;;5081407;28;20562;-63
2023/07/17 04:40:40;;;;;;;9.07;4.20;;;;;;;;;;5081792;28;20460;-63
2023/07/17 04:43:06;;;;;;;8.67;4.20;;;;;;;;;;5080527;28;20513;-63
2023/07/17 04:45:33;;;;;;;6.93;4.13;;;;;;;;;;5081427;28;20468;-63
2023/07/17 04:47:59;;;;;;;8.27;3.80;;;;;;;;;;5081754;28;20444;-63
2023/07/17 04:50:30;;;;;;;9.47;4.67;;;;;;;;;;5080932;28;20493;-63
2023/07/17 04:52:56;;;;;;;6.30;3.97;;;;;;;;;;5080577;28;20470;-63
2023/07/17 04:55:23;;;;;;;5.73;4.77;;;;;;;;;;5081663;28;20452;-63
2023/07/17 04:57:49;;;;;;;9.53;5.00;;;;;;;;;;5080587;28;20534;-62
2023/07/17 05:00:16;;;;;;;6.60;4.60;;;;;;;;;;5080690;28;20476;-63
2023/07/17 05:02:42;;;;;;;5.10;3.87;;;;;;;;;;5080849;28;20490;-63
2023/07/17 05:05:09;;;;;;;6.87;4.13;;;;;;;;;;5080592;28;20487;-63
2023/07/17 05:07:36;;;;;;;8.40;4.40;;;;;;;;;;5080219;28;20475;-63
2023/07/17 05:10:04;;;;;;;9.70;3.73;;;;;;;;;;5076839;28;20514;-63
2023/07/17 05:12:30;;;;;;;5.60;3.87;;;;;;;;;;5076553;28;20459;-62
2023/07/17 05:14:56;;;;;;;6.50;3.87;;;;;;;;;;5081628;28;20519;-62
2023/07/17 05:17:23;;;;;;;6.43;3.60;;;;;;;;;;5081332;28;20880;-63
2023/07/17 05:19:49;;;;;;;4.90;3.33;;;;;;;;;;5080314;28;20452;-62
2023/07/17 05:22:15;;;;;;;4.97;3.63;;;;;;;;;;5080918;28;20665;-62
2023/07/17 05:24:43;;;;;;;5.70;3.10;;;;;;;;;;5080251;28;20476;-63
2023/07/17 05:27:09;;;;;;;7.37;4.50;;;;;;;;;;5077913;28;20479;-62
2023/07/17 05:29:36;;;;;;;5.77;3.53;;;;;;;;;;5080557;28;20507;-63
2023/07/17 05:32:03;;;;;;;4.63;3.50;;;;;;;;;;5080852;28;20474;-63
2023/07/17 05:34:29;;;;;;;6.47;4.40;;;;;;;;;;5067094;28;20487;-63
2023/07/17 05:36:55;;;;;;;6.83;3.90;;;;;;;;;;5069397;28;21442;-62
2023/07/17 05:39:22;;;;;;;6.00;3.50;;;;;;;;;;5072950;28;20543;-62
2023/07/17 05:41:50;;;;;;;4.77;3.70;;;;;;;;;;5074743;28;20493;-63
2023/07/17 05:44:16;;;;;;;4.60;3.43;;;;;;;;;;5076083;28;20524;-62
2023/07/17 05:46:43;;;;;;;6.20;3.23;;;;;;;;;;5080986;28;20483;-62
2023/07/17 05:49:09;;;;;;;8.53;3.40;;;;;;;;;;5080042;28;20448;-63
2023/07/17 05:51:36;;;;;;;6.10;3.67;;;;;;;;;;5080729;28;20520;-63
2023/07/17 05:54:02;;;;;;;8.10;2.90;;;;;;;;;;5079298;28;20488;-63
2023/07/17 05:56:28;;;;;;;4.83;3.00;;;;;;;;;;5079123;28;20901;-63
2023/07/17 05:58:56;;;;;;;4.33;3.17;;;;;;;;;;5077728;28;20468;-64
2023/07/17 06:01:22;;;;;;;5.47;3.20;;;;;;;;;;5080613;28;20526;-63
2023/07/17 06:03:49;;;;;;;4.80;2.77;;;;;;;;;;5075307;28;20516;-64
2023/07/17 06:06:15;;;;;;;6.87;2.67;;;;;;;;;;5072138;28;20487;-64
2023/07/17 06:08:42;;;;;;;5.13;3.10;;;;;;;;;;5079798;28;20480;-64
2023/07/17 06:11:08;;;;;;;6.43;2.77;;;;;;;;;;5079667;28;20472;-63
2023/07/17 06:13:34;;;;;;;3.30;2.63;;;;;;;;;;5080481;28;20495;-63
2023/07/17 06:16:02;;;;;;;5.40;3.20;;;;;;;;;;5080605;28;20570;-63
2023/07/17 06:18:29;;;;;;;5.60;2.90;;;;;;;;;;5079763;28;20452;-63
2023/07/17 06:20:55;;;;;;;3.40;2.30;;;;;;;;;;5079990;28;20455;-64
2023/07/17 06:23:21;;;;;;;5.63;2.97;;;;;;;;;;5079455;28;20444;-63
2023/07/17 06:25:48;;;;;;;5.03;2.70;;;;;;;;;;5079185;28;20482;-63
2023/07/17 06:28:14;;;;;;;6.73;3.00;;;;;;;;;;5080157;28;20527;-63
2023/07/17 06:30:41;;;;;;;5.03;3.07;;;;;;;;;;5079874;28;20565;-64
2023/07/17 06:33:09;;;;;;;6.23;2.63;;;;;;;;;;5079218;28;20448;-64
2023/07/17 06:35:35;;;;;;;5.30;2.90;;;;;;;;;;5079338;28;20522;-63
2023/07/17 06:38:02;;;;;;;6.77;2.37;;;;;;;;;;5079569;28;20501;-63
2023/07/17 06:40:28;;;;;;;3.73;2.37;;;;;;;;;;5079756;28;20440;-63
2023/07/17 06:42:55;;;;;;;5.17;3.20;;;;;;;;;;5079275;28;20927;-64
2023/07/17 06:45:21;;;;;;;7.30;3.10;;;;;;;;;;5079438;28;20460;-63
2023/07/17 06:47:48;;;;;;;5.90;2.70;;;;;;;;;;5079561;28;20506;-63
2023/07/17 06:50:15;;;;;;;4.30;2.43;;;;;;;;;;5079030;28;20535;-63
2023/07/17 06:52:43;;;;;;;4.47;2.67;;;;;;;;;;5071152;28;20491;-63
2023/07/17 06:55:09;;;;;;;4.40;2.63;;;;;;;;;;5079125;28;20490;-63
2023/07/17 06:57:36;;;;;;;8.60;2.77;;;;;;;;;;5078723;28;20982;-63
2023/07/17 07:00:05;;;;;;;4.77;2.57;;;;;;;;;;5079746;28;20500;-63
2023/07/17 07:02:31;;;;;;;7.23;2.80;;;;;;;;;;5078689;28;20940;-63
2023/07/17 07:04:58;;;;;;;7.43;2.80;;;;;;;;;;5080132;28;20483;-62
2023/07/17 07:07:25;;;;;;;4.40;2.47;;;;;;;;;;5083674;28;20447;-63
2023/07/17 07:09:52;;;;;;;5.60;2.53;;;;;;;;;;5083301;28;20496;-63
2023/07/17 07:12:18;;;;;;;6.40;2.53;;;;;;;;;;5083221;28;20454;-63
2023/07/17 07:14:44;;;;;;;5.30;2.43;;;;;;;;;;5083170;28;20980;-63
2023/07/17 07:17:12;;;;;;;4.07;2.40;;;;;;;;;;5083679;28;20451;-63
2023/07/17 07:19:38;;;;;;;4.97;2.33;;;;;;;;;;5082894;28;21007;-63
2023/07/17 07:22:05;;;;;;;3.83;2.60;;;;;;;;;;5083478;28;20515;-62
2023/07/17 07:24:32;;;;;;;4.03;2.10;;;;;;;;;;5082768;28;20467;-62
2023/07/17 07:26:59;;;;;;;5.23;2.43;;;;;;;;;;5082975;28;20912;-64
2023/07/17 07:29:25;;;;;;;4.83;2.43;;;;;;;;;;5083284;28;20447;-63
2023/07/17 07:31:52;;;;;;;7.00;2.87;;;;;;;;;;5083112;28;20486;-63
2023/07/17 07:34:18;;;;;;;3.90;2.70;;;;;;;;;;5075205;28;20484;-63
2023/07/17 07:36:45;;;;;;;5.63;2.83;;;;;;;;;;5079043;28;20507;-63
2023/07/17 07:39:11;;;;;;;5.33;2.97;;;;;;;;;;5082286;28;20460;-63
2023/07/17 07:41:39;;;;;;;5.00;3.10;;;;;;;;;;5082240;28;20480;-63
2023/07/17 07:44:05;;;;;;;5.50;3.00;;;;;;;;;;5081442;28;20459;-63
2023/07/17 07:46:31;;;;;;;4.37;2.20;;;;;;;;;;5083285;28;20472;-63
2023/07/17 07:48:58;;;;;;;5.03;2.67;;;;;;;;;;5082522;28;20510;-63
2023/07/17 07:51:24;;;;;;;5.27;2.90;;;;;;;;;;5081996;28;20912;-62
2023/07/17 07:53:51;;;;;;;4.03;3.10;;;;;;;;;;5082378;28;20911;-63
2023/07/17 07:56:18;;;;;;;5.40;3.70;;;;;;;;;;5083269;28;20525;-63
2023/07/17 07:58:45;;;;;;;7.83;3.40;;;;;;;;;;5082479;28;20497;-63
2023/07/17 08:01:12;;;;;;;5.90;3.97;;;;;;;;;;5082824;28;20964;-63
2023/07/17 08:03:40;;;;;;;5.33;3.40;;;;;;;;;;5082706;28;20548;-63
2023/07/17 08:06:06;;;;;;;5.03;3.77;;;;;;;;;;5081536;28;20466;-63
2023/07/17 08:08:33;;;;;;;5.97;4.50;;;;;;;;;;5082170;28;20872;-63
2023/07/17 08:11:01;;;;;;;4.23;3.53;;;;;;;;;;5082196;28;20482;-63
2023/07/17 08:13:28;;;;;;;5.07;3.80;;;;;;;;;;5081312;28;20459;-63
2023/07/17 08:15:56;;;;;;;5.03;3.70;;;;;;;;;;5081539;28;20444;-63
2023/07/17 08:18:22;;;;;;;6.63;3.50;;;;;;;;;;5082366;28;20482;-63
2023/07/17 08:20:49;;;;;;;6.57;3.37;;;;;;;;;;5080943;28;20475;-63
2023/07/17 08:23:24;;;;;;;5.00;3.50;;;;;;;;;;5081135;28;20586;-63
2023/07/17 08:25:51;;;;;;;4.90;3.00;;;;;;;;;;5082181;28;20523;-63
2023/07/17 08:28:17;;;;;;;4.50;3.40;;;;;;;;;;5076483;28;20932;-63
2023/07/17 08:30:43;;;;;;;6.13;3.30;;;;;;;;;;5081905;28;20515;-64
2023/07/17 08:33:12;;;;;;;4.70;4.10;;;;;;;;;;5081745;28;20566;-64
2023/07/17 08:35:38;;;;;;;4.13;3.67;;;;;;;;;;5081128;28;20522;-64
2023/07/17 08:38:05;;;;;;;6.73;4.23;;;;;;;;;;5081385;28;20474;-64
2023/07/17 08:40:33;;;;;;;5.13;3.37;;;;;;;;;;5081794;28;20440;-64
2023/07/17 08:43:01;;;;;;;5.30;4.23;;;;;;;;;;5081002;28;20483;-64
2023/07/17 08:45:27;;;;;;;7.00;4.60;;;;;;;;;;5079828;28;20464;-64
2023/07/17 08:47:55;;;;;;;4.50;3.53;;;;;;;;;;5081890;28;20522;-64
2023/07/17 08:50:23;;;;;;;7.47;4.17;;;;;;;;;;5081428;28;20502;-65
2023/07/17 08:52:50;;;;;;;5.80;4.60;;;;;;;;;;5081665;28;20448;-64
2023/07/17 08:55:17;;;;;;;6.30;4.00;;;;;;;;;;5081871;28;20524;-64
2023/07/17 08:57:44;;;;;;;5.30;3.80;;;;;;;;;;5081517;28;20460;-63
2023/07/17 09:00:15;;;;;;;6.70;4.20;;;;;;;;;;5081820;28;20464;-61
2023/07/17 09:02:41;;;;;;;5.00;3.90;;;;;;;;;;5081973;28;20509;-62
2023/07/17 09:05:08;;;;;;;4.20;3.80;;;;;;;;;;5080512;28;20468;-61
2023/07/17 09:07:36;;;;;;;5.80;4.53;;;;;;;;;;5081169;28;20468;-61
2023/07/17 09:10:13;;;;;;;4.80;3.57;;;;;;;;;;5065966;28;20452;-61
2023/07/17 09:12:41;;;;;;;6.17;4.17;;;;;;;;;;5081123;28;20483;-63
2023/07/17 09:15:08;;;;;;;5.03;3.87;;;;;;;;;;5080447;28;20736;-63
2023/07/17 09:17:34;;;;;;;6.37;3.97;;;;;;;;;;5081823;28;20527;-64
2023/07/17 09:20:07;;;;;;;7.33;4.20;;;;;;;;;;5073941;28;20455;-64
2023/07/17 09:22:33;;;;;;;6.37;4.50;;;;;;;;;;5078344;28;20505;-64
2023/07/17 09:25:01;;;;;;;6.63;4.70;;;;;;;;;;5080580;28;20490;-61
2023/07/17 09:27:27;;;;;;;5.00;4.03;;;;;;;;;;5080685;28;21007;-62
2023/07/17 09:29:54;;;;;;;7.10;4.53;;;;;;;;;;5081229;28;20511;-62
2023/07/17 09:32:22;;;;;;;6.90;5.03;;;;;;;;;;5076656;28;20531;-62
2023/07/17 09:34:52;;;;;;;6.80;4.10;;;;;;;;;;5080012;28;20501;-62
2023/07/17 09:37:18;;;;;;;5.97;4.33;;;;;;;;;;5081133;28;20455;-62
2023/07/17 09:39:45;;;;;;;8.07;5.13;;;;;;;;;;5080485;28;20495;-62
2023/07/17 09:42:23;;;;;;;7.40;5.00;;;;;;;;;;5078263;28;20459;-62
2023/07/17 09:44:51;;;;;;;6.80;4.97;;;;;;;;;;5080671;28;20460;-62
2023/07/17 09:47:17;;;;;;;5.87;4.30;;;;;;;;;;5081462;28;20457;-62
2023/07/17 09:49:44;;;;;;;7.33;5.33;;;;;;;;;;5080718;28;20500;-62
2023/07/17 09:52:10;;;;;;;8.77;5.87;;;;;;;;;;5080008;28;20526;-62
2023/07/17 09:54:38;;;;;;;6.63;5.43;;;;;;;;;;5075950;28;20505;-62
2023/07/17 09:57:05;;;;;;;7.70;5.50;;;;;;;;;;5079567;28;20476;-62
2023/07/17 09:59:36;;;;;;;6.47;5.43;;;;;;;;;;5080923;28;20722;-62
2023/07/17 10:02:03;;;;;;;10.43;5.57;;;;;;;;;;5080719;28;20476;-62
2023/07/17 10:04:32;;;;;;;7.30;6.03;;;;;;;;;;5079617;28;20535;-64
2023/07/17 10:07:00;;;;;;;8.73;6.23;;;;;;;;;;5079558;28;20490;-63
2023/07/17 10:09:26;;;;;;;8.57;5.13;;;;;;;;;;5080250;28;20476;-63
2023/07/17 10:11:53;;;;;;;6.97;5.30;;;;;;;;;;5080149;28;20488;-63
2023/07/17 10:14:20;;;;;;;7.53;5.90;;;;;;;;;;5080240;28;20459;-63
2023/07/17 10:16:50;;;;;;;9.90;6.77;;;;;;;;;;5080128;28;20706;-63
2023/07/17 10:19:17;;;;;;;6.87;5.07;;;;;;;;;;5080163;28;20443;-63
2023/07/17 10:21:53;;;;;;;7.67;5.90;;;;;;;;;;5080539;28;20497;-63
2023/07/17 10:24:22;;;;;;;8.67;5.37;;;;;;;;;;5073754;28;20455;-63
2023/07/17 10:26:49;;;;;;;8.10;5.23;;;;;;;;;;5080292;28;20512;-63
2023/07/17 10:29:16;;;;;;;9.90;5.47;;;;;;;;;;5081053;28;20479;-63
2023/07/17 10:31:49;;;;;;;7.03;5.20;;;;;;;;;;5080538;28;20496;-63
2023/07/17 10:34:16;;;;;;;7.83;4.60;;;;;;;;;;5079805;28;20460;-63
2023/07/17 10:36:43;;;;;;;9.30;5.50;;;;;;;;;;5080519;28;20456;-63
2023/07/17 10:39:12;;;;;;;6.50;5.33;;;;;;;;;;5077047;28;20949;-63
2023/07/17 10:41:38;;;;;;;8.00;6.10;;;;;;;;;;5078925;28;20785;-63
2023/07/17 10:44:07;;;;;;;9.20;5.07;;;;;;;;;;5079173;28;20463;-63
2023/07/17 10:46:34;;;;;;;7.90;5.97;;;;;;;;;;5079833;28;20456;-63
2023/07/17 10:49:09;;;;;;;6.20;4.50;;;;;;;;;;5079295;28;20483;-63
2023/07/17 10:51:35;;;;;;;5.10;4.60;;;;;;;;;;5078353;28;20493;-63
2023/07/17 10:54:02;;;;;;;7.13;4.97;;;;;;;;;;5079223;28;20854;-63
2023/07/17 10:56:31;;;;;;;6.00;3.80;;;;;;;;;;5079207;28;20447;-63
2023/07/17 10:58:57;;;;;;;5.00;4.20;;;;;;;;;;5079582;28;20519;-63
2023/07/17 11:01:24;;;;;;;5.10;3.83;;;;;;;;;;5080001;28;20539;-63
2023/07/17 11:03:50;;;;;;;4.67;3.77;;;;;;;;;;5078458;28;20519;-63
2023/07/17 11:06:19;;;;;;;6.00;3.93;;;;;;;;;;5078793;28;20467;-63
2023/07/17 11:08:48;;;;;;;6.40;3.83;;;;;;;;;;5079523;28;20775;-63
2023/07/17 11:11:14;;;;;;;5.90;3.60;;;;;;;;;;5078504;28;20476;-63
2023/07/17 11:13:43;;;;;;;4.20;3.30;;;;;;;;;;5079426;28;20546;-63
2023/07/17 11:16:10;;;;;;;8.60;4.30;;;;;;;;;;5079785;28;20444;-63
2023/07/17 11:18:46;;;;;;;6.43;3.30;;;;;;;;;;5079148;28;20444;-63
2023/07/17 11:21:13;;;;;;;5.93;3.37;;;;;;;;;;5079766;28;20478;-63
2023/07/17 11:23:50;;;;;;;3.57;2.80;;;;;;;;;;5079153;28;20487;-63
2023/07/17 11:26:17;;;;;;;5.67;3.40;;;;;;;;;;5079282;28;20435;-63
2023/07/17 11:28:43;;;;;;;3.53;2.80;;;;;;;;;;5079924;28;20478;-63
2023/07/17 11:31:17;;;;;;;5.73;2.97;;;;;;;;;;5079861;28;20514;-63
2023/07/17 11:33:49;;;;;;;4.97;3.10;;;;;;;;;;5079060;28;20478;-63
2023/07/17 11:36:15;;;;;;;5.30;2.93;;;;;;;;;;5077918;28;20514;-62
2023/07/17 11:38:42;;;;;;;4.20;2.70;;;;;;;;;;5078758;28;20506;-63
2023/07/17 11:41:10;;;;;;;3.40;2.70;;;;;;;;;;5078404;28;20460;-63
2023/07/17 11:43:36;;;;;;;7.57;3.33;;;;;;;;;;5078298;28;21023;-63
2023/07/17 11:46:03;;;;;;;4.40;2.70;;;;;;;;;;5069570;28;20499;-63
2023/07/17 11:48:30;;;;;;;6.10;2.80;;;;;;;;;;5078726;28;20475;-63
2023/07/17 11:50:57;;;;;;;4.07;2.50;;;;;;;;;;5081437;28;20471;-63
2023/07/17 11:53:24;;;;;;;2.60;2.40;;;;;;;;;;5082239;28;20483;-63
2023/07/17 11:55:51;;;;;;;4.10;2.73;;;;;;;;;;5082512;28;20486;-63
2023/07/17 11:58:19;;;;;;;7.40;3.13;;;;;;;;;;5083270;28;20480;-63
2023/07/17 12:00:48;;;;;;;3.03;2.57;;;;;;;;;;5083243;28;20543;-63
2023/07/17 12:03:14;;;;;;;6.43;2.60;;;;;;;;;;5082393;28;20841;-63
2023/07/17 12:05:41;;;;;;;5.00;2.63;;;;;;;;;;5082012;28;20947;-63
2023/07/17 12:08:08;;;;;;;6.50;1.90;;;;;;;;;;5082185;28;20455;-63
2023/07/17 12:10:35;;;;;;;5.00;2.60;;;;;;;;;;5083252;28;20510;-63
2023/07/17 12:13:02;;;;;;;4.37;2.27;;;;;;;;;;5080300;28;20558;-63
2023/07/17 12:15:30;;;;;;;3.10;2.13;;;;;;;;;;5081581;28;20455;-63
2023/07/17 12:17:57;;;;;;;4.83;2.47;;;;;;;;;;5081767;28;20523;-63
2023/07/17 12:20:23;;;;;;;3.43;2.37;;;;;;;;;;5081420;28;20451;-63
2023/07/17 12:22:50;;;;;;;4.43;2.43;;;;;;;;;;5081329;28;20479;-63
2023/07/17 12:25:17;;;;;;;3.50;2.57;;;;;;;;;;5081141;28;20511;-62
2023/07/17 12:27:43;;;;;;;4.43;2.33;;;;;;;;;;5081745;28;20480;-63
2023/07/17 12:30:10;;;;;;;3.30;2.30;;;;;;;;;;5083837;28;20480;-63
2023/07/17 12:32:39;;;;;;;6.77;2.70;;;;;;;;;;5075118;28;20490;-63
2023/07/17 12:35:05;;;;;;;6.37;2.50;;;;;;;;;;5079902;28;20507;-62
2023/07/17 12:37:32;;;;;;;2.53;2.33;;;;;;;;;;5078263;28;20455;-62
2023/07/17 12:39:59;;;;;;;5.70;2.77;;;;;;;;;;5082376;28;21190;-62
2023/07/17 12:42:25;;;;;;;3.10;2.00;;;;;;;;;;5082625;28;20551;-62
2023/07/17 12:44:52;;;;;;;3.57;2.67;;;;;;;;;;5081127;28;20579;-63
2023/07/17 12:47:18;;;;;;;3.27;2.03;;;;;;;;;;5082906;28;20801;-62
2023/07/17 12:49:46;;;;;;;5.20;2.20;;;;;;;;;;5083169;28;20495;-63
2023/07/17 12:52:12;;;;;;;5.80;2.13;;;;;;;;;;5081998;28;20507;-63
2023/07/17 12:54:39;;;;;;;3.20;2.40;;;;;;;;;;5081662;28;20488;-63
2023/07/17 12:57:06;;;;;;;3.10;2.27;;;;;;;;;;5082400;28;20507;-63
2023/07/17 12:59:32;;;;;;;3.20;2.50;;;;;;;;;;5081173;28;20522;-63
2023/07/17 13:01:58;;;;;;;5.17;2.70;;;;;;;;;;5081708;28;20535;-63
2023/07/17 13:04:25;;;;;;;3.40;2.00;;;;;;;;;;5081917;28;20483;-63
2023/07/17 13:06:53;;;;;;;7.03;2.17;;;;;;;;;;5080172;28;20532;-63
2023/07/17 13:09:19;;;;;;;3.37;2.27;;;;;;;;;;5081143;28;20912;-63
2023/07/17 13:11:45;;;;;;;4.83;2.50;;;;;;;;;;5081991;28;20476;-63
2023/07/17 13:14:12;;;;;;;4.63;2.70;;;;;;;;;;5080759;28;20479;-63
2023/07/17 13:16:38;;;;;;;6.17;2.43;;;;;;;;;;5081439;28;20528;-63
2023/07/17 13:19:05;;;;;;;3.57;2.10;;;;;;;;;;5081662;28;20482;-63
2023/07/17 13:21:31;;;;;;;4.23;2.57;;;;;;;;;;5080700;28;20515;-63
2023/07/17 13:24:00;;;;;;;4.70;2.60;;;;;;;;;;5068646;28;20523;-63
2023/07/17 13:26:28;;;;;;;2.80;2.17;;;;;;;;;;5081660;28;20448;-63
2023/07/17 13:28:55;;;;;;;4.57;2.40;;;;;;;;;;5080525;28;20475;-63
2023/07/17 13:31:22;;;;;;;3.70;2.17;;;;;;;;;;5081491;28;20443;-64
2023/07/17 13:33:48;;;;;;;4.33;2.60;;;;;;;;;;5080616;28;20482;-63
2023/07/17 13:36:14;;;;;;;4.17;2.60;;;;;;;;;;5079463;28;20511;-63
2023/07/17 13:38:41;;;;;;;2.80;2.20;;;;;;;;;;5079807;28;20655;-63
2023/07/17 13:41:13;;;;;;;4.80;2.27;;;;;;;;;;5081504;28;20622;-63
2023/07/17 13:43:40;;;;;;;4.47;2.33;;;;;;;;;;5079769;28;20456;-63
2023/07/17 13:46:06;;;;;;;6.87;2.40;;;;;;;;;;5071399;28;20472;-63
2023/07/17 13:48:33;;;;;;;4.33;1.90;;;;;;;;;;5080928;28;20444;-63
2023/07/17 13:50:59;;;;;;;4.53;2.40;;;;;;;;;;5080141;28;20448;-63
2023/07/17 13:53:25;;;;;;;5.20;2.80;;;;;;;;;;5080383;28;20483;-64
2023/07/17 13:55:52;;;;;;;3.60;2.17;;;;;;;;;;5080378;28;20898;-63
2023/07/17 13:58:20;;;;;;;4.63;2.37;;;;;;;;;;5080048;28;20535;-63
2023/07/17 14:00:46;;;;;;;5.00;2.33;;;;;;;;;;5071140;28;20472;-63
2023/07/17 14:03:13;;;;;;;3.20;2.23;;;;;;;;;;5080760;28;20551;-63
2023/07/17 14:05:39;;;;;;;3.63;2.30;;;;;;;;;;5078460;28;20499;-63
2023/07/17 14:08:05;;;;;;;4.97;2.10;;;;;;;;;;5080003;28;20523;-63
2023/07/17 14:10:32;;;;;;;4.00;2.60;;;;;;;;;;5080833;28;20456;-63
2023/07/17 14:12:59;;;;;;;4.27;2.50;;;;;;;;;;5079297;28;20512;-63
2023/07/17 14:15:27;;;;;;;4.70;2.83;;;;;;;;;;5079620;28;20459;-63
2023/07/17 14:17:56;;;;;;;3.77;2.37;;;;;;;;;;5080228;28;20898;-64
2023/07/17 14:20:22;;;;;;;4.50;2.43;;;;;;;;;;5079881;28;20468;-63
2023/07/17 14:22:48;;;;;;;4.50;2.70;;;;;;;;;;5079818;28;20567;-63
2023/07/17 14:25:15;;;;;;;4.03;2.43;;;;;;;;;;5073896;28;20782;-63
2023/07/17 14:27:41;;;;;;;7.90;2.70;;;;;;;;;;5075131;28;21040;-63
2023/07/17 14:30:10;;;;;;;4.73;2.63;;;;;;;;;;5079914;28;20503;-63
2023/07/17 14:32:37;;;;;;;4.27;3.17;;;;;;;;;;5080282;28;20494;-63
2023/07/17 14:35:04;;;;;;;5.57;2.80;;;;;;;;;;5078656;28;21050;-63
2023/07/17 14:37:31;;;;;;;3.10;2.20;;;;;;;;;;5079543;28;20455;-63
2023/07/17 14:39:57;;;;;;;4.10;2.60;;;;;;;;;;5079586;28;20452;-63
2023/07/17 14:42:24;;;;;;;3.40;2.00;;;;;;;;;;5079803;28;20508;-63